FMEP/ZSE METAR and TAF weather

Enter ICAO airport designator
Station Type Date Time Source
FMEP METAR 2018/06/25 02:00 UTC NOAA

FMEP 250200Z AUTO 09008KT 9999 BKN072 20/16 Q1020


Station Type Date Time Source
FMEP Decoded METAR 2018/06/25 02:00 UTC NOAA

Saint-Pierre, Reunion (FMEP) 21-20S 055-29E 53M
Jun 24, 2018 - 10:00 PM EDT / 2018.06.25 0200 UTC
Wind: from the E (090 degrees) at 9 MPH (8 KT):0
Visibility: greater than 7 mile(s):0
Sky conditions: mostly cloudy
Temperature: 68 F (20 C)
Dew Point: 60 F (16 C)
Relative Humidity: 77%
Pressure (altimeter): 30.12 in. Hg (1020 hPa)
ob: FMEP 250200Z AUTO 09008KT 9999 BKN072 20/16 Q1020
cycle: 2

Station Type Date Time Source
FMEP TAF 2018/04/15 12:00 UTC NOAA

TAF FMEP 151100Z 1512/1521 14018KT 9999 FEW055


Example: see airport list